Juan De La Cosa — ECJE — position and weather

sailwx.info

Track history (hours):
 
Tides and Currents Weather Stations Pressure Air Temp Water Temp Dewpoint Dewpoint Depression Visibility Wind Speed Wind Dir Waves Ship Positions

Juan De La Cosa

Last reported at 2014-Dec-18 15:26 UTC. Time now 2014-Dec-20 09:41 UTC.
Position N 45°48' W 003°16'.

Length 75 m; draft 4.5 m.

Type: Medical transport. MMSI: 224612000.

Date/timePositionNaut miles runAvg speedWind from/ knotsBaromVisibWave heightAir tempDewpointWater temp
2014-Dec-18 15:26N 45°48' W 003°16'57 4.7
2014-Dec-18 03:21N 45°09' W 002°18'36 4.0
2014-Dec-17 18:12N 44°37' W 001°54'5 7.8
2014-Dec-17 17:33N 44°42' W 001°55'7 3.6
2014-Dec-17 15:33N 44°47' W 001°49'6 5.8
2014-Dec-17 14:32N 44°53' W 001°51'2 0.4
2014-Dec-17 09:33N 44°52' W 001°53'16 2.9
2014-Dec-17 04:05N 44°37' W 001°58'3 5.5
2014-Dec-17 03:30N 44°40' W 001°59'  
2014-Dec-12 15:33N 44°43' W 001°47'8 7.2
2014-Dec-12 14:29N 44°36' W 001°46'7 7.8
2014-Dec-12 13:33N 44°39' W 001°55'53 7.1
2014-Dec-12 06:10N 43°47' W 002°00'5 7.9
2014-Dec-12 05:33N 43°42' W 002°00'2 2.2
2014-Dec-12 04:28N 43°43' W 001°57'19 8.1
2014-Dec-12 02:05N 44°02' W 002°03'  
Track history (hours):
 
Tides and Currents Weather Stations Pressure Air Temp Water Temp Dewpoint Dewpoint Depression Visibility Wind Speed Wind Dir Waves Ship Positions

Juan De La Cosa

Last reported at 2014-Dec-18 15:26 UTC. Time now 2014-Dec-20 09:41 UTC.
Position N 45°48' W 003°16'.

Length 75 m; draft 4.5 m.

Type: Medical transport. MMSI: 224612000.

Date/timePositionNaut miles runAvg speedWind from/ knotsBaromVisibWave heightAir tempDewpointWater temp
2014-Dec-18 15:26N 45°48' W 003°16'57 4.7
2014-Dec-18 03:21N 45°09' W 002°18'36 4.0
2014-Dec-17 18:12N 44°37' W 001°54'5 7.8
2014-Dec-17 17:33N 44°42' W 001°55'7 3.6
2014-Dec-17 15:33N 44°47' W 001°49'6 5.8
2014-Dec-17 14:32N 44°53' W 001°51'2 0.4
2014-Dec-17 09:33N 44°52' W 001°53'16 2.9
2014-Dec-17 04:05N 44°37' W 001°58'3 5.5
2014-Dec-17 03:30N 44°40' W 001°59'  
2014-Dec-12 15:33N 44°43' W 001°47'8 7.2
2014-Dec-12 14:29N 44°36' W 001°46'7 7.8
2014-Dec-12 13:33N 44°39' W 001°55'53 7.1
2014-Dec-12 06:10N 43°47' W 002°00'5 7.9
2014-Dec-12 05:33N 43°42' W 002°00'2 2.2
2014-Dec-12 04:28N 43°43' W 001°57'19 8.1
2014-Dec-12 02:05N 44°02' W 002°03'  

Dump ship's entire track history